sensor_id;sensor_type;location;lat;lon;timestamp;pressure;altitude;pressure_sealevel;temperature;humidity
29909;BME280;36247;51.952;6.146;2023-07-02T00:00:33;100530.19;;;17.28;100.00
29909;BME280;36247;51.952;6.146;2023-07-02T00:03:00;100532.00;;;17.28;100.00
29909;BME280;36247;51.952;6.146;2023-07-02T00:05:26;100510.59;;;17.28;100.00
29909;BME280;36247;51.952;6.146;2023-07-02T00:07:51;100497.19;;;17.28;100.00
29909;BME280;36247;51.952;6.146;2023-07-02T00:10:17;100501.72;;;17.26;100.00
29909;BME280;36247;51.952;6.146;2023-07-02T00:12:42;100497.25;;;17.25;100.00
29909;BME280;36247;51.952;6.146;2023-07-02T00:15:11;100512.38;;;17.27;100.00
29909;BME280;36247;51.952;6.146;2023-07-02T00:17:37;100507.91;;;17.28;100.00
29909;BME280;36247;51.952;6.146;2023-07-02T00:20:07;100504.38;;;17.26;100.00
29909;BME280;36247;51.952;6.146;2023-07-02T00:22:36;100518.66;;;17.26;100.00
29909;BME280;36247;51.952;6.146;2023-07-02T00:25:02;100508.81;;;17.27;100.00
29909;BME280;36247;51.952;6.146;2023-07-02T00:27:27;100508.78;;;17.28;100.00
29909;BME280;36247;51.952;6.146;2023-07-02T00:29:53;100507.06;;;17.26;100.00
29909;BME280;36247;51.952;6.146;2023-07-02T00:32:19;100499.00;;;17.27;100.00
29909;BME280;36247;51.952;6.146;2023-07-02T00:34:44;100500.78;;;17.27;100.00
29909;BME280;36247;51.952;6.146;2023-07-02T00:37:12;100494.50;;;17.30;100.00
29909;BME280;36247;51.952;6.146;2023-07-02T00:39:37;100491.84;;;17.28;100.00
29909;BME280;36247;51.952;6.146;2023-07-02T00:42:03;100496.38;;;17.24;100.00
29909;BME280;36247;51.952;6.146;2023-07-02T00:44:29;100503.47;;;17.25;100.00
29909;BME280;36247;51.952;6.146;2023-07-02T00:46:55;100503.50;;;17.24;100.00
29909;BME280;36247;51.952;6.146;2023-07-02T00:49:21;100492.81;;;17.24;100.00
29909;BME280;36247;51.952;6.146;2023-07-02T00:51:47;100502.63;;;17.25;100.00
29909;BME280;36247;51.952;6.146;2023-07-02T00:54:12;100510.66;;;17.25;100.00
29909;BME280;36247;51.952;6.146;2023-07-02T00:56:37;100512.47;;;17.23;100.00
29909;BME280;36247;51.952;6.146;2023-07-02T00:59:03;100507.16;;;17.21;100.00
29909;BME280;36247;51.952;6.146;2023-07-02T01:01:29;100506.19;;;17.24;100.00
29909;BME280;36247;51.952;6.146;2023-07-02T01:04:02;100509.84;;;17.21;100.00
29909;BME280;36247;51.952;6.146;2023-07-02T01:06:30;100525.97;;;17.17;100.00
29909;BME280;36247;51.952;6.146;2023-07-02T01:08:58;100530.47;;;17.15;100.00
29909;BME280;36247;51.952;6.146;2023-07-02T01:11:30;100538.00;;;16.91;100.00
29909;BME280;36247;51.952;6.146;2023-07-02T01:14:04;100550.78;;;16.70;100.00
29909;BME280;36247;51.952;6.146;2023-07-02T01:16:31;100560.91;;;16.53;100.00
29909;BME280;36247;51.952;6.146;2023-07-02T01:18:59;100567.19;;;16.49;100.00
29909;BME280;36247;51.952;6.146;2023-07-02T01:21:32;100557.63;;;16.32;100.00
29909;BME280;36247;51.952;6.146;2023-07-02T01:23:59;100564.13;;;16.14;100.00
29909;BME280;36247;51.952;6.146;2023-07-02T01:26:29;100565.94;;;16.12;100.00
29909;BME280;36247;51.952;6.146;2023-07-02T01:28:55;100568.75;;;15.98;100.00
29909;BME280;36247;51.952;6.146;2023-07-02T01:31:21;100569.59;;;16.03;100.00
29909;BME280;36247;51.952;6.146;2023-07-02T01:33:50;100565.44;;;15.78;100.00
29909;BME280;36247;51.952;6.146;2023-07-02T01:36:16;100560.94;;;15.84;100.00
29909;BME280;36247;51.952;6.146;2023-07-02T01:38:42;100568.09;;;15.79;100.00
29909;BME280;36247;51.952;6.146;2023-07-02T01:41:07;100568.13;;;15.75;100.00
29909;BME280;36247;51.952;6.146;2023-07-02T01:43:33;100571.75;;;15.72;100.00
29909;BME280;36247;51.952;6.146;2023-07-02T01:45:59;100570.78;;;15.82;100.00
29909;BME280;36247;51.952;6.146;2023-07-02T01:48:25;100570.78;;;15.78;100.00
29909;BME280;36247;51.952;6.146;2023-07-02T01:50:50;100582.47;;;15.69;100.00
29909;BME280;36247;51.952;6.146;2023-07-02T01:53:16;100575.38;;;15.65;100.00
29909;BME280;36247;51.952;6.146;2023-07-02T01:55:41;100579.88;;;15.58;100.00
29909;BME280;36247;51.952;6.146;2023-07-02T01:58:07;100591.44;;;15.62;100.00
29909;BME280;36247;51.952;6.146;2023-07-02T02:00:33;100589.66;;;15.61;100.00
29909;BME280;36247;51.952;6.146;2023-07-02T02:02:58;100589.69;;;15.58;100.00
29909;BME280;36247;51.952;6.146;2023-07-02T02:05:24;100584.44;;;15.51;100.00
29909;BME280;36247;51.952;6.146;2023-07-02T02:07:49;100592.38;;;15.58;100.00
29909;BME280;36247;51.952;6.146;2023-07-02T02:10:15;100584.50;;;15.45;100.00
29909;BME280;36247;51.952;6.146;2023-07-02T02:12:41;100586.25;;;15.45;100.00
29909;BME280;36247;51.952;6.146;2023-07-02T02:15:07;100594.31;;;15.42;100.00
29909;BME280;36247;51.952;6.146;2023-07-02T02:17:33;100579.22;;;15.41;100.00
29909;BME280;36247;51.952;6.146;2023-07-02T02:20:00;100587.25;;;15.34;100.00
29909;BME280;36247;51.952;6.146;2023-07-02T02:22:25;100590.78;;;15.40;100.00
29909;BME280;36247;51.952;6.146;2023-07-02T02:24:51;100587.34;;;15.25;100.00
29909;BME280;36247;51.952;6.146;2023-07-02T02:27:16;100593.56;;;15.27;100.00
29909;BME280;36247;51.952;6.146;2023-07-02T02:29:42;100600.72;;;15.21;100.00
29909;BME280;36247;51.952;6.146;2023-07-02T02:32:08;100601.63;;;15.18;100.00
29909;BME280;36247;51.952;6.146;2023-07-02T02:34:43;100595.50;;;15.08;100.00
29909;BME280;36247;51.952;6.146;2023-07-02T02:37:12;100600.78;;;15.16;100.00
29909;BME280;36247;51.952;6.146;2023-07-02T02:39:42;100607.97;;;15.09;100.00
29909;BME280;36247;51.952;6.146;2023-07-02T02:42:08;100604.38;;;15.10;100.00
29909;BME280;36247;51.952;6.146;2023-07-02T02:44:33;100602.63;;;15.05;100.00
29909;BME280;36247;51.952;6.146;2023-07-02T02:46:59;100603.66;;;14.91;100.00
29909;BME280;36247;51.952;6.146;2023-07-02T02:49:25;100601.00;;;14.88;100.00
29909;BME280;36247;51.952;6.146;2023-07-02T02:51:51;100601.84;;;14.93;100.00
29909;BME280;36247;51.952;6.146;2023-07-02T02:54:16;100604.63;;;14.83;100.00
29909;BME280;36247;51.952;6.146;2023-07-02T02:56:42;100612.59;;;14.86;100.00
29909;BME280;36247;51.952;6.146;2023-07-02T02:59:08;100608.25;;;14.72;100.00
29909;BME280;36247;51.952;6.146;2023-07-02T03:01:35;100608.25;;;14.71;100.00
29909;BME280;36247;51.952;6.146;2023-07-02T03:04:00;100617.16;;;14.67;100.00
29909;BME280;36247;51.952;6.146;2023-07-02T03:06:26;100613.59;;;14.69;100.00
29909;BME280;36247;51.952;6.146;2023-07-02T03:08:52;100621.53;;;14.77;100.00
29909;BME280;36247;51.952;6.146;2023-07-02T03:11:17;100622.38;;;14.84;100.00
29909;BME280;36247;51.952;6.146;2023-07-02T03:13:43;100624.16;;;14.83;100.00
29909;BME280;36247;51.952;6.146;2023-07-02T03:16:09;100629.50;;;14.83;100.00
29909;BME280;36247;51.952;6.146;2023-07-02T03:18:37;100625.94;;;14.83;100.00
29909;BME280;36247;51.952;6.146;2023-07-02T03:21:02;100633.94;;;14.86;100.00
29909;BME280;36247;51.952;6.146;2023-07-02T03:23:28;100625.97;;;14.81;100.00
29909;BME280;36247;51.952;6.146;2023-07-02T03:25:53;100638.34;;;14.88;100.00
29909;BME280;36247;51.952;6.146;2023-07-02T03:28:19;100638.34;;;14.88;100.00
29909;BME280;36247;51.952;6.146;2023-07-02T03:30:45;100638.34;;;14.85;100.00
29909;BME280;36247;51.952;6.146;2023-07-02T03:33:11;100646.31;;;14.94;100.00
29909;BME280;36247;51.952;6.146;2023-07-02T03:35:37;100643.69;;;14.84;100.00
29909;BME280;36247;51.952;6.146;2023-07-02T03:38:04;100641.91;;;14.87;100.00
29909;BME280;36247;51.952;6.146;2023-07-02T03:40:32;100641.06;;;14.79;100.00
29909;BME280;36247;51.952;6.146;2023-07-02T03:42:57;100649.03;;;14.84;100.00
29909;BME280;36247;51.952;6.146;2023-07-02T03:45:23;100650.78;;;14.88;100.00
29909;BME280;36247;51.952;6.146;2023-07-02T03:47:48;100649.00;;;14.88;100.00
29909;BME280;36247;51.952;6.146;2023-07-02T03:50:15;100649.00;;;14.87;100.00
29909;BME280;36247;51.952;6.146;2023-07-02T03:52:42;100654.34;;;14.91;100.00
29909;BME280;36247;51.952;6.146;2023-07-02T03:55:08;100656.06;;;14.95;100.00
29909;BME280;36247;51.952;6.146;2023-07-02T03:57:37;100652.56;;;14.90;100.00
29909;BME280;36247;51.952;6.146;2023-07-02T04:00:02;100652.47;;;15.01;100.00
29909;BME280;36247;51.952;6.146;2023-07-02T04:02:42;100655.13;;;15.04;100.00
29909;BME280;36247;51.952;6.146;2023-07-02T04:05:08;100657.75;;;15.09;100.00
29909;BME280;36247;51.952;6.146;2023-07-02T04:07:33;100665.81;;;15.03;100.00
29909;BME280;36247;51.952;6.146;2023-07-02T04:09:59;100662.22;;;15.07;100.00
29909;BME280;36247;51.952;6.146;2023-07-02T04:12:26;100671.09;;;15.09;100.00
29909;BME280;36247;51.952;6.146;2023-07-02T04:14:51;100660.44;;;15.06;100.00
29909;BME280;36247;51.952;6.146;2023-07-02T04:17:17;100661.31;;;15.12;100.00
29909;BME280;36247;51.952;6.146;2023-07-02T04:19:42;100669.34;;;15.02;100.00
29909;BME280;36247;51.952;6.146;2023-07-02T04:22:08;100665.84;;;14.98;100.00
29909;BME280;36247;51.952;6.146;2023-07-02T04:24:36;100670.25;;;15.04;100.00
29909;BME280;36247;51.952;6.146;2023-07-02T04:27:02;100666.75;;;14.94;100.00
29909;BME280;36247;51.952;6.146;2023-07-02T04:29:28;100674.75;;;14.95;100.00
29909;BME280;36247;51.952;6.146;2023-07-02T04:31:54;100679.09;;;15.10;100.00
29909;BME280;36247;51.952;6.146;2023-07-02T04:34:20;100675.44;;;15.21;100.00
29909;BME280;36247;51.952;6.146;2023-07-02T04:36:47;100683.50;;;15.16;100.00
29909;BME280;36247;51.952;6.146;2023-07-02T04:39:13;100681.63;;;15.29;100.00
29909;BME280;36247;51.952;6.146;2023-07-02T04:41:38;100671.81;;;15.29;100.00
29909;BME280;36247;51.952;6.146;2023-07-02T04:44:07;100683.34;;;15.33;100.00
29909;BME280;36247;51.952;6.146;2023-07-02T04:46:33;100683.41;;;15.25;100.00
29909;BME280;36247;51.952;6.146;2023-07-02T04:49:00;100685.16;;;15.29;100.00
29909;BME280;36247;51.952;6.146;2023-07-02T04:51:25;100683.31;;;15.39;100.00
29909;BME280;36247;51.952;6.146;2023-07-02T04:53:51;100687.75;;;15.40;100.00
29909;BME280;36247;51.952;6.146;2023-07-02T04:56:16;100689.47;;;15.46;100.00
29909;BME280;36247;51.952;6.146;2023-07-02T04:58:42;100685.03;;;15.45;100.00
29909;BME280;36247;51.952;6.146;2023-07-02T05:01:08;100693.09;;;15.40;100.00
29909;BME280;36247;51.952;6.146;2023-07-02T05:03:33;100688.56;;;15.48;100.00
29909;BME280;36247;51.952;6.146;2023-07-02T05:05:59;100692.16;;;15.44;100.00
29909;BME280;36247;51.952;6.146;2023-07-02T05:08:25;100690.34;;;15.46;100.00
29909;BME280;36247;51.952;6.146;2023-07-02T05:10:50;100690.34;;;15.51;100.00
29909;BME280;36247;51.952;6.146;2023-07-02T05:13:16;100686.72;;;15.55;100.00
29909;BME280;36247;51.952;6.146;2023-07-02T05:15:42;100698.97;;;15.84;100.00
29909;BME280;36247;51.952;6.146;2023-07-02T05:18:08;100706.75;;;16.04;100.00
29909;BME280;36247;51.952;6.146;2023-07-02T05:20:33;100695.22;;;16.00;100.00
29909;BME280;36247;51.952;6.146;2023-07-02T05:22:59;100687.22;;;16.00;100.00
29909;BME280;36247;51.952;6.146;2023-07-02T05:25:24;100700.66;;;15.91;100.00
29909;BME280;36247;51.952;6.146;2023-07-02T05:27:50;100697.94;;;15.94;100.00
29909;BME280;36247;51.952;6.146;2023-07-02T05:30:15;100706.91;;;15.90;100.00
29909;BME280;36247;51.952;6.146;2023-07-02T05:32:42;100715.63;;;16.08;100.00
29909;BME280;36247;51.952;6.146;2023-07-02T05:35:08;100706.53;;;16.22;100.00
29909;BME280;36247;51.952;6.146;2023-07-02T05:37:33;100706.56;;;16.19;100.00
29909;BME280;36247;51.952;6.146;2023-07-02T05:39:59;100703.97;;;16.15;100.00
29909;BME280;36247;51.952;6.146;2023-07-02T05:42:24;100715.41;;;16.28;100.00
29909;BME280;36247;51.952;6.146;2023-07-02T05:44:50;100720.84;;;16.20;100.00
29909;BME280;36247;51.952;6.146;2023-07-02T05:47:15;100720.72;;;16.29;100.00
29909;BME280;36247;51.952;6.146;2023-07-02T05:49:44;100714.34;;;16.41;100.00
29909;BME280;36247;51.952;6.146;2023-07-02T05:52:12;100726.28;;;16.09;100.00
29909;BME280;36247;51.952;6.146;2023-07-02T05:54:42;100730.66;;;16.18;100.00
29909;BME280;36247;51.952;6.146;2023-07-02T05:57:07;100734.31;;;16.12;100.00
29909;BME280;36247;51.952;6.146;2023-07-02T05:59:33;100729.50;;;16.42;100.00
29909;BME280;36247;51.952;6.146;2023-07-02T06:01:59;100730.56;;;16.27;100.00
29909;BME280;36247;51.952;6.146;2023-07-02T06:04:25;100733.91;;;16.45;100.00
29909;BME280;36247;51.952;6.146;2023-07-02T06:06:50;100736.56;;;16.46;100.00
29909;BME280;36247;51.952;6.146;2023-07-02T06:09:16;100735.50;;;16.60;100.00
29909;BME280;36247;51.952;6.146;2023-07-02T06:11:42;100741.75;;;16.62;100.00
29909;BME280;36247;51.952;6.146;2023-07-02T06:14:08;100741.63;;;16.69;100.00
29909;BME280;36247;51.952;6.146;2023-07-02T06:16:33;100741.53;;;16.77;100.00
29909;BME280;36247;51.952;6.146;2023-07-02T06:18:59;100749.94;;;16.46;100.00
29909;BME280;36247;51.952;6.146;2023-07-02T06:21:24;100750.69;;;16.57;100.00
29909;BME280;36247;51.952;6.146;2023-07-02T06:23:55;100743.34;;;16.77;100.00
29909;BME280;36247;51.952;6.146;2023-07-02T06:26:21;100750.63;;;16.62;100.00
29909;BME280;36247;51.952;6.146;2023-07-02T06:28:46;100744.13;;;16.82;100.00
29909;BME280;36247;51.952;6.146;2023-07-02T06:31:12;100743.16;;;16.90;100.00
29909;BME280;36247;51.952;6.146;2023-07-02T06:33:41;100750.31;;;16.85;100.00
29909;BME280;36247;51.952;6.146;2023-07-02T06:36:07;100746.78;;;16.83;100.00
29909;BME280;36247;51.952;6.146;2023-07-02T06:38:33;100760.41;;;16.66;100.00
29909;BME280;36247;51.952;6.146;2023-07-02T06:40:58;100764.56;;;16.92;100.00
29909;BME280;36247;51.952;6.146;2023-07-02T06:43:24;100766.41;;;16.88;100.00
29909;BME280;36247;51.952;6.146;2023-07-02T06:45:49;100767.31;;;16.83;100.00
29909;BME280;36247;51.952;6.146;2023-07-02T06:48:15;100759.09;;;16.98;100.00
29909;BME280;36247;51.952;6.146;2023-07-02T06:50:46;100775.31;;;16.86;100.00
29909;BME280;36247;51.952;6.146;2023-07-02T06:53:12;100777.06;;;16.91;100.00
29909;BME280;36247;51.952;6.146;2023-07-02T06:55:38;100774.38;;;16.93;100.00
29909;BME280;36247;51.952;6.146;2023-07-02T06:58:07;100768.88;;;17.02;100.00
29909;BME280;36247;51.952;6.146;2023-07-02T07:00:34;100775.91;;;17.09;100.00
29909;BME280;36247;51.952;6.146;2023-07-02T07:03:02;100783.78;;;17.20;100.00
29909;BME280;36247;51.952;6.146;2023-07-02T07:05:32;100795.47;;;17.13;100.00
29909;BME280;36247;51.952;6.146;2023-07-02T07:07:59;100790.22;;;17.07;100.00
29909;BME280;36247;51.952;6.146;2023-07-02T07:10:26;100799.13;;;17.07;100.00
29909;BME280;36247;51.952;6.146;2023-07-02T07:12:51;100799.00;;;17.15;100.00
29909;BME280;36247;51.952;6.146;2023-07-02T07:15:17;100812.22;;;17.29;100.00
29909;BME280;36247;51.952;6.146;2023-07-02T07:17:43;100808.91;;;17.10;100.00
29909;BME280;36247;51.952;6.146;2023-07-02T07:20:10;100815.88;;;17.22;100.00
29909;BME280;36247;51.952;6.146;2023-07-02T07:22:38;100814.75;;;17.40;100.00
29909;BME280;36247;51.952;6.146;2023-07-02T07:25:04;100810.59;;;17.19;100.00
29909;BME280;36247;51.952;6.146;2023-07-02T07:27:29;100816.59;;;17.36;100.00
29909;BME280;36247;51.952;6.146;2023-07-02T07:29:55;100824.69;;;17.32;100.00
29909;BME280;36247;51.952;6.146;2023-07-02T07:32:21;100822.16;;;17.19;100.00
29909;BME280;36247;51.952;6.146;2023-07-02T07:34:46;100809.78;;;17.71;100.00
29909;BME280;36247;51.952;6.146;2023-07-02T07:37:12;100810.63;;;17.73;100.00
29909;BME280;36247;51.952;6.146;2023-07-02T07:39:38;100814.19;;;17.75;100.00
29909;BME280;36247;51.952;6.146;2023-07-02T07:42:04;100817.66;;;17.82;100.00
29909;BME280;36247;51.952;6.146;2023-07-02T07:44:29;100813.00;;;17.95;100.00
29909;BME280;36247;51.952;6.146;2023-07-02T07:46:56;100814.25;;;17.72;100.00
29909;BME280;36247;51.952;6.146;2023-07-02T07:49:22;100820.19;;;17.91;100.00
29909;BME280;36247;51.952;6.146;2023-07-02T07:51:47;100815.69;;;17.95;100.00
29909;BME280;36247;51.952;6.146;2023-07-02T07:54:15;100818.03;;;17.59;100.00
29909;BME280;36247;51.952;6.146;2023-07-02T07:56:43;100819.25;;;17.95;100.00
29909;BME280;36247;51.952;6.146;2023-07-02T07:59:08;100823.91;;;17.83;100.00
29909;BME280;36247;51.952;6.146;2023-07-02T08:01:38;100827.63;;;17.72;100.00
29909;BME280;36247;51.952;6.146;2023-07-02T08:04:12;100825.78;;;18.30;100.00
29909;BME280;36247;51.952;6.146;2023-07-02T08:06:38;100822.25;;;18.27;100.00
29909;BME280;36247;51.952;6.146;2023-07-02T08:09:03;100823.91;;;18.36;100.00
29909;BME280;36247;51.952;6.146;2023-07-02T08:11:29;100826.81;;;18.23;100.00
29909;BME280;36247;51.952;6.146;2023-07-02T08:13:55;100828.25;;;17.93;100.00
29909;BME280;36247;51.952;6.146;2023-07-02T08:16:20;100827.81;;;18.16;100.00
29909;BME280;36247;51.952;6.146;2023-07-02T08:18:46;100827.28;;;17.95;100.00
29909;BME280;36247;51.952;6.146;2023-07-02T08:21:11;100815.50;;;18.54;100.00
29909;BME280;36247;51.952;6.146;2023-07-02T08:23:37;100834.13;;;18.13;100.00
29909;BME280;36247;51.952;6.146;2023-07-02T08:26:03;100829.56;;;18.20;100.00
29909;BME280;36247;51.952;6.146;2023-07-02T08:28:29;100824.28;;;18.15;100.00
29909;BME280;36247;51.952;6.146;2023-07-02T08:30:54;100830.72;;;18.54;100.00
29909;BME280;36247;51.952;6.146;2023-07-02T08:33:20;100841.91;;;18.29;100.00
29909;BME280;36247;51.952;6.146;2023-07-02T08:35:46;100843.66;;;18.78;85.01
29909;BME280;36247;51.952;6.146;2023-07-02T08:38:12;100855.69;;;19.04;81.34
29909;BME280;36247;51.952;6.146;2023-07-02T08:40:38;100855.16;;;18.38;83.11
29909;BME280;36247;51.952;6.146;2023-07-02T08:43:03;100860.78;;;18.24;87.42
29909;BME280;36247;51.952;6.146;2023-07-02T08:45:29;100857.72;;;18.44;87.03
29909;BME280;36247;51.952;6.146;2023-07-02T08:47:55;100857.19;;;18.72;86.99
29909;BME280;36247;51.952;6.146;2023-07-02T08:50:22;100861.06;;;18.57;86.63
29909;BME280;36247;51.952;6.146;2023-07-02T08:52:48;100861.75;;;18.67;91.68
29909;BME280;36247;51.952;6.146;2023-07-02T08:55:15;100864.50;;;18.15;89.71
29909;BME280;36247;51.952;6.146;2023-07-02T08:58:02;100872.47;;;18.19;87.54
29909;BME280;36247;51.952;6.146;2023-07-02T09:00:28;100873.50;;;18.10;89.97
29909;BME280;36247;51.952;6.146;2023-07-02T09:02:56;100868.72;;;18.77;89.99
29909;BME280;36247;51.952;6.146;2023-07-02T09:05:21;100868.19;;;18.58;91.57
29909;BME280;36247;51.952;6.146;2023-07-02T09:07:49;100866.69;;;19.34;89.17
29909;BME280;36247;51.952;6.146;2023-07-02T09:10:28;100864.56;;;19.06;88.04
29909;BME280;36247;51.952;6.146;2023-07-02T09:13:07;100884.19;;;18.63;92.60
29909;BME280;36247;51.952;6.146;2023-07-02T09:15:38;100867.69;;;18.36;94.75
29909;BME280;36247;51.952;6.146;2023-07-02T09:18:18;100870.22;;;18.45;82.53
29909;BME280;36247;51.952;6.146;2023-07-02T09:20:45;100876.03;;;18.19;88.99
29909;BME280;36247;51.952;6.146;2023-07-02T09:23:12;100873.31;;;18.21;91.25
29909;BME280;36247;51.952;6.146;2023-07-02T09:25:38;100867.19;;;19.51;82.33
29909;BME280;36247;51.952;6.146;2023-07-02T09:28:16;100866.84;;;20.04;68.92
29909;BME280;36247;51.952;6.146;2023-07-02T09:30:49;100864.66;;;19.45;64.44
29909;BME280;36247;51.952;6.146;2023-07-02T09:33:16;100872.53;;;19.12;69.84
29909;BME280;36247;51.952;6.146;2023-07-02T09:35:44;100873.75;;;18.94;68.88
29909;BME280;36247;51.952;6.146;2023-07-02T09:38:12;100864.06;;;19.70;66.67
29909;BME280;36247;51.952;6.146;2023-07-02T09:40:45;100867.34;;;19.01;63.65
29909;BME280;36247;51.952;6.146;2023-07-02T09:43:14;100862.25;;;19.70;67.65
29909;BME280;36247;51.952;6.146;2023-07-02T09:45:46;100870.81;;;19.08;67.72
29909;BME280;36247;51.952;6.146;2023-07-02T09:48:16;100883.63;;;18.94;70.78
29909;BME280;36247;51.952;6.146;2023-07-02T09:50:48;100894.19;;;18.55;68.08
29909;BME280;36247;51.952;6.146;2023-07-02T09:53:15;100907.47;;;19.09;66.65
29909;BME280;36247;51.952;6.146;2023-07-02T09:55:44;100902.41;;;18.45;65.45
29909;BME280;36247;51.952;6.146;2023-07-02T09:58:12;100889.59;;;19.10;62.49
29909;BME280;36247;51.952;6.146;2023-07-02T10:00:38;100873.00;;;19.70;62.70
29909;BME280;36247;51.952;6.146;2023-07-02T10:03:08;100873.53;;;19.88;62.96
29909;BME280;36247;51.952;6.146;2023-07-02T10:05:33;100883.88;;;19.25;64.77
29909;BME280;36247;51.952;6.146;2023-07-02T10:08:16;100887.69;;;19.13;65.52
29909;BME280;36247;51.952;6.146;2023-07-02T10:10:43;100890.66;;;19.43;64.43
29909;BME280;36247;51.952;6.146;2023-07-02T10:13:26;100884.25;;;20.25;60.24
29909;BME280;36247;51.952;6.146;2023-07-02T10:16:03;100885.53;;;20.45;60.38
29909;BME280;36247;51.952;6.146;2023-07-02T10:18:29;100890.50;;;20.95;59.68
29909;BME280;36247;51.952;6.146;2023-07-02T10:20:54;100879.72;;;20.95;56.80
29909;BME280;36247;51.952;6.146;2023-07-02T10:23:20;100885.09;;;21.26;52.52
29909;BME280;36247;51.952;6.146;2023-07-02T10:25:46;100881.59;;;21.23;52.07
29909;BME280;36247;51.952;6.146;2023-07-02T10:28:19;100896.44;;;21.08;51.91
29909;BME280;36247;51.952;6.146;2023-07-02T10:30:47;100894.38;;;19.77;55.44
29909;BME280;36247;51.952;6.146;2023-07-02T10:33:17;100889.44;;;19.97;58.41
29909;BME280;36247;51.952;6.146;2023-07-02T10:35:48;100888.88;;;19.42;57.64
29909;BME280;36247;51.952;6.146;2023-07-02T10:40:44;100894.34;;;19.80;58.41
29909;BME280;36247;51.952;6.146;2023-07-02T10:43:12;100898.00;;;19.35;56.44
29909;BME280;36247;51.952;6.146;2023-07-02T10:45:38;100898.19;;;19.26;59.84
29909;BME280;36247;51.952;6.146;2023-07-02T10:48:12;100893.56;;;20.47;54.91
29909;BME280;36247;51.952;6.146;2023-07-02T10:50:38;100895.84;;;20.62;52.56
29909;BME280;36247;51.952;6.146;2023-07-02T10:53:20;100889.03;;;22.02;50.16
29909;BME280;36247;51.952;6.146;2023-07-02T10:55:53;100903.16;;;21.54;50.35
29909;BME280;36247;51.952;6.146;2023-07-02T10:58:20;100886.34;;;22.02;46.50
29909;BME280;36247;51.952;6.146;2023-07-02T11:00:47;100887.84;;;22.11;48.55
29909;BME280;36247;51.952;6.146;2023-07-02T11:03:20;100888.34;;;21.96;48.87
29909;BME280;36247;51.952;6.146;2023-07-02T11:05:47;100887.56;;;21.64;51.04
29909;BME280;36247;51.952;6.146;2023-07-02T11:08:13;100909.03;;;19.63;54.66
29909;BME280;36247;51.952;6.146;2023-07-02T11:10:42;100915.78;;;21.21;51.01
29909;BME280;36247;51.952;6.146;2023-07-02T11:13:19;100903.69;;;21.94;49.61
29909;BME280;36247;51.952;6.146;2023-07-02T11:15:45;100897.28;;;21.08;51.00
29909;BME280;36247;51.952;6.146;2023-07-02T11:18:18;100914.84;;;21.83;51.26
29909;BME280;36247;51.952;6.146;2023-07-02T11:20:46;100910.31;;;21.24;50.67
29909;BME280;36247;51.952;6.146;2023-07-02T11:23:19;100911.56;;;20.79;51.97
29909;BME280;36247;51.952;6.146;2023-07-02T11:26:00;100905.19;;;20.83;52.19
29909;BME280;36247;51.952;6.146;2023-07-02T11:28:29;100915.97;;;20.13;53.66
29909;BME280;36247;51.952;6.146;2023-07-02T11:30:55;100911.22;;;20.91;52.37
29909;BME280;36247;51.952;6.146;2023-07-02T11:33:33;100904.78;;;22.43;48.49
29909;BME280;36247;51.952;6.146;2023-07-02T11:35:59;100904.47;;;21.97;49.57
29909;BME280;36247;51.952;6.146;2023-07-02T11:38:24;100919.69;;;20.43;51.27
29909;BME280;36247;51.952;6.146;2023-07-02T11:40:50;100906.34;;;21.95;51.46
29909;BME280;36247;51.952;6.146;2023-07-02T11:43:16;100912.03;;;22.68;47.73
29909;BME280;36247;51.952;6.146;2023-07-02T11:45:43;100919.47;;;21.48;50.04
29909;BME280;36247;51.952;6.146;2023-07-02T11:48:11;100918.25;;;21.28;50.96
29909;BME280;36247;51.952;6.146;2023-07-02T11:50:38;100909.38;;;20.93;49.95
29909;BME280;36247;51.952;6.146;2023-07-02T11:53:04;100902.88;;;22.47;46.50
29909;BME280;36247;51.952;6.146;2023-07-02T11:55:30;100914.09;;;23.12;45.92
29909;BME280;36247;51.952;6.146;2023-07-02T11:57:56;100918.47;;;21.21;47.98
29909;BME280;36247;51.952;6.146;2023-07-02T12:00:21;100918.47;;;20.55;48.24
29909;BME280;36247;51.952;6.146;2023-07-02T12:02:48;100924.94;;;21.45;47.36
29909;BME280;36247;51.952;6.146;2023-07-02T12:05:14;100909.00;;;21.69;48.46
29909;BME280;36247;51.952;6.146;2023-07-02T12:07:42;100918.94;;;20.72;48.47
29909;BME280;36247;51.952;6.146;2023-07-02T12:10:08;100929.03;;;21.60;46.99
29909;BME280;36247;51.952;6.146;2023-07-02T12:12:33;100923.06;;;22.07;47.22
29909;BME280;36247;51.952;6.146;2023-07-02T12:14:59;100913.22;;;21.77;46.56
29909;BME280;36247;51.952;6.146;2023-07-02T12:17:25;100911.44;;;22.33;45.86
29909;BME280;36247;51.952;6.146;2023-07-02T12:19:50;100911.38;;;23.12;43.00
29909;BME280;36247;51.952;6.146;2023-07-02T12:22:16;100915.03;;;22.05;43.70
29909;BME280;36247;51.952;6.146;2023-07-02T12:24:43;100916.13;;;22.26;44.29
29909;BME280;36247;51.952;6.146;2023-07-02T12:27:13;100912.56;;;23.28;42.74
29909;BME280;36247;51.952;6.146;2023-07-02T12:29:38;100919.16;;;21.89;44.79
29909;BME280;36247;51.952;6.146;2023-07-02T12:32:10;100923.50;;;21.02;44.25
29909;BME280;36247;51.952;6.146;2023-07-02T12:34:37;100921.75;;;20.68;44.93
29909;BME280;36247;51.952;6.146;2023-07-02T12:37:04;100935.44;;;22.14;44.18
29909;BME280;36247;51.952;6.146;2023-07-02T12:39:29;100922.28;;;22.31;43.24
29909;BME280;36247;51.952;6.146;2023-07-02T12:41:55;100932.03;;;20.86;45.05
29909;BME280;36247;51.952;6.146;2023-07-02T12:44:20;100932.84;;;22.64;43.35